Lowell Highlands, MA

10 Minute Time Series

16-Aug-2018 03:40 AM

TimeTempHumidityDewpointBarometerWindSpeedWindGustWind DirRain
16-Aug-2018 12:10 AM75.0°F83%69.5°F29.887 inHg0 mph2 mph279° (W)0.00 in
16-Aug-2018 12:20 AM74.9°F84%69.7°F29.886 inHg0 mph2 mph291° (WNW)0.00 in
16-Aug-2018 12:30 AM74.8°F84%69.6°F29.884 inHg0 mph2 mph301° (WNW)0.00 in
16-Aug-2018 12:40 AM74.6°F84%69.4°F29.889 inHg0 mph2 mph N/A (N/A)0.00 in
16-Aug-2018 12:50 AM74.2°F84%69.0°F29.894 inHg0 mph3 mph313° (NW)0.00 in
16-Aug-2018 01:00 AM74.0°F85%69.2°F29.891 inHg1 mph3 mph281° (W)0.00 in
16-Aug-2018 01:10 AM73.8°F85%69.0°F29.890 inHg1 mph3 mph242° (WSW)0.00 in
16-Aug-2018 01:20 AM73.6°F85%68.8°F29.889 inHg1 mph3 mph283° (WNW)0.00 in
16-Aug-2018 01:30 AM73.5°F86%69.0°F29.891 inHg1 mph3 mph333° (NNW)0.00 in
16-Aug-2018 01:40 AM73.4°F86%68.9°F29.890 inHg0 mph2 mph266° (W)0.00 in
16-Aug-2018 01:50 AM73.3°F86%68.8°F29.888 inHg0 mph2 mph204° (SSW)0.00 in
16-Aug-2018 02:00 AM73.1°F86%68.7°F29.885 inHg0 mph2 mph306° (NW)0.00 in
16-Aug-2018 02:10 AM73.0°F86%68.6°F29.889 inHg0 mph2 mph314° (NW)0.00 in
16-Aug-2018 02:20 AM72.9°F87%68.8°F29.893 inHg0 mph3 mph298° (WNW)0.00 in
16-Aug-2018 02:30 AM72.7°F87%68.6°F29.891 inHg0 mph3 mph349° (N)0.00 in
16-Aug-2018 02:40 AM72.6°F87%68.5°F29.885 inHg0 mph3 mph198° (SSW)0.00 in
16-Aug-2018 02:50 AM72.4°F88%68.6°F29.887 inHg0 mph3 mph187° (S)0.00 in
16-Aug-2018 03:00 AM72.3°F88%68.5°F29.890 inHg0 mph2 mph219° (SW)0.00 in
16-Aug-2018 03:10 AM72.2°F88%68.4°F29.893 inHg0 mph2 mph223° (SW)0.00 in
16-Aug-2018 03:20 AM72.1°F88%68.3°F29.900 inHg0 mph2 mph223° (SW)0.00 in
16-Aug-2018 03:30 AM72.0°F88%68.2°F29.896 inHg0 mph1 mph223° (SW)0.00 in
16-Aug-2018 03:40 AM71.8°F89%68.4°F29.896 inHg0 mph1 mph223° (SW)0.00 in